Time;durP1;ratioP1;P1;durP2;ratioP2;P2;SDS_P1;SDS_P2;PMS_P1;PMS_P2;Temp;Humidity;BMP_temperature;BMP_pressure;BME280_temperature;BME280_humidity;BME280_pressure;Samples;Min_cycle;Max_cycle;Signal;HPM_P1;HPM_P2
2024/01/07 00:02:11;;;;;;;2.35;1.92;;;20.20;33.60;;;;;;4999768;28;20026;-54
2024/01/07 00:04:37;;;;;;;3.03;2.10;;;20.20;33.60;;;;;;5002614;28;20036;-57
2024/01/07 00:07:04;;;;;;;2.38;1.90;;;20.20;33.70;;;;;;4997095;28;20053;-54
2024/01/07 00:09:30;;;;;;;3.17;2.10;;;20.20;33.70;;;;;;5001804;28;20104;-52
2024/01/07 00:11:56;;;;;;;3.03;2.17;;;20.20;33.70;;;;;;4998283;28;20474;-56
2024/01/07 00:14:22;;;;;;;2.75;2.10;;;20.20;33.70;;;;;;5001911;28;20030;-55
2024/01/07 00:16:47;;;;;;;2.90;2.25;;;20.20;33.70;;;;;;5000245;28;20113;-55
2024/01/07 00:19:13;;;;;;;2.80;2.30;;;20.20;33.70;;;;;;5003368;28;20084;-53
2024/01/07 00:21:39;;;;;;;2.30;2.00;;;20.20;33.70;;;;;;5012357;28;20032;-55
2024/01/07 00:24:05;;;;;;;3.03;2.20;;;20.20;33.70;;;;;;5009511;28;20033;-55
2024/01/07 00:26:31;;;;;;;3.60;2.50;;;20.20;33.70;;;;;;5011119;28;20121;-52
2024/01/07 00:28:57;;;;;;;3.58;2.50;;;20.10;33.70;;;;;;5004049;28;20030;-53
2024/01/07 00:31:22;;;;;;;3.10;2.08;;;20.10;34.30;;;;;;5004083;28;20053;-55
2024/01/07 00:33:48;;;;;;;3.15;2.45;;;20.10;33.70;;;;;;5003629;28;20038;-56
2024/01/07 00:36:14;;;;;;;3.47;2.65;;;20.10;33.70;;;;;;5006060;28;20037;-55
2024/01/07 00:38:40;;;;;;;3.17;2.47;;;20.10;33.70;;;;;;5007686;28;20026;-53
2024/01/07 00:41:05;;;;;;;2.90;2.22;;;20.10;33.70;;;;;;5003821;28;20050;-55
2024/01/07 00:43:31;;;;;;;3.30;2.58;;;20.10;33.70;;;;;;5004921;28;20030;-56
2024/01/07 00:45:57;;;;;;;3.45;2.25;;;20.10;33.80;;;;;;5005577;28;20117;-54
2024/01/07 00:48:23;;;;;;;3.90;3.00;;;20.10;33.80;;;;;;5007339;28;20022;-55
2024/01/07 00:50:48;;;;;;;4.10;3.05;;;20.10;33.80;;;;;;5010130;28;20049;-55
2024/01/07 00:53:14;;;;;;;3.88;3.10;;;20.10;33.80;;;;;;5007055;28;20337;-56
2024/01/07 00:55:40;;;;;;;4.90;3.28;;;20.10;33.80;;;;;;5005194;28;20057;-56
2024/01/07 00:58:06;;;;;;;4.50;3.10;;;20.10;33.80;;;;;;5006255;28;20041;-51
2024/01/07 01:00:32;;;;;;;3.70;2.88;;;20.10;33.80;;;;;;5001826;28;20457;-54
2024/01/07 01:02:58;;;;;;;4.30;3.38;;;20.10;33.80;;;;;;4999428;28;20069;-52
2024/01/07 01:05:24;;;;;;;4.43;3.17;;;20.10;33.80;;;;;;5004190;28;20349;-50
2024/01/07 01:07:50;;;;;;;4.18;2.85;;;20.00;33.80;;;;;;5003266;28;20353;-54
2024/01/07 01:10:16;;;;;;;3.78;3.08;;;20.00;33.80;;;;;;5002679;28;20041;-55
2024/01/07 01:12:43;;;;;;;4.38;3.10;;;20.00;33.70;;;;;;5005701;28;20038;-52
2024/01/07 01:15:10;;;;;;;3.70;2.97;;;20.00;33.70;;;;;;5001753;28;20045;-52
2024/01/07 01:17:36;;;;;;;3.22;2.70;;;20.00;33.70;;;;;;4999467;28;20434;-51
2024/01/07 01:20:02;;;;;;;3.38;2.55;;;20.00;33.70;;;;;;5007402;28;20030;-50
2024/01/07 01:22:28;;;;;;;3.03;2.47;;;20.00;33.70;;;;;;5007487;28;20026;-53
2024/01/07 01:24:55;;;;;;;3.80;2.78;;;20.00;33.70;;;;;;5005451;28;20022;-52
2024/01/07 01:27:21;;;;;;;3.13;2.38;;;20.00;33.70;;;;;;5001891;28;20037;-52
2024/01/07 01:29:47;;;;;;;3.45;2.47;;;20.00;33.70;;;;;;5007110;28;20038;-55
2024/01/07 01:32:13;;;;;;;3.97;2.80;;;20.00;33.70;;;;;;4998630;28;20651;-55
2024/01/07 01:34:40;;;;;;;3.70;2.67;;;20.00;33.70;;;;;;4999276;28;20272;-53
2024/01/07 01:37:08;;;;;;;3.97;2.67;;;20.00;33.80;;;;;;5004800;28;20046;-58
2024/01/07 01:39:34;;;;;;;3.85;2.70;;;19.90;33.70;;;;;;5001115;28;20121;-56
2024/01/07 01:42:00;;;;;;;3.33;2.42;;;19.90;33.70;;;;;;5005645;28;20117;-53
2024/01/07 01:44:27;;;;;;;2.78;2.20;;;19.90;33.70;;;;;;5002524;28;20096;-52
2024/01/07 01:46:55;;;;;;;2.50;2.15;;;19.90;33.70;;;;;;5007029;28;20401;-54
2024/01/07 01:49:21;;;;;;;2.97;2.22;;;19.90;33.60;;;;;;5004225;28;20086;-52
2024/01/07 01:51:47;;;;;;;3.28;2.65;;;19.90;33.60;;;;;;5005810;28;20021;-55
2024/01/07 01:54:13;;;;;;;3.08;2.30;;;19.90;33.60;;;;;;5006673;28;20026;-53
2024/01/07 01:56:39;;;;;;;3.30;2.45;;;19.90;33.60;;;;;;5009869;28;20100;-53
2024/01/07 01:59:05;;;;;;;3.17;2.55;;;19.90;33.60;;;;;;5005810;28;20038;-52
2024/01/07 02:01:31;;;;;;;3.10;2.35;;;19.90;33.60;;;;;;5004436;28;20027;-53
2024/01/07 02:03:57;;;;;;;3.53;2.90;;;19.90;33.60;;;;;;5009479;28;20364;-55
2024/01/07 02:06:25;;;;;;;3.75;2.72;;;19.90;33.60;;;;;;5006410;28;20096;-56
2024/01/07 02:08:51;;;;;;;3.47;2.50;;;19.90;33.60;;;;;;5002857;28;20037;-54
2024/01/07 02:11:21;;;;;;;4.22;2.78;;;19.90;33.50;;;;;;5002501;28;20030;-52
2024/01/07 02:13:48;;;;;;;3.67;2.80;;;19.80;33.60;;;;;;4999481;28;20038;-53
2024/01/07 02:16:14;;;;;;;3.83;2.78;;;19.90;33.60;;;;;;5005439;28;20042;-50
2024/01/07 02:18:44;;;;;;;4.90;2.85;;;19.80;33.60;;;;;;4998586;28;20429;-54
2024/01/07 02:21:12;;;;;;;4.93;3.10;;;19.80;33.60;;;;;;5007159;28;20034;-52
2024/01/07 02:23:38;;;;;;;4.35;2.72;;;19.80;33.60;;;;;;5001993;28;20060;-50
2024/01/07 02:26:04;;;;;;;4.03;3.08;;;19.80;33.60;;;;;;4998149;28;20405;-54
2024/01/07 02:28:31;;;;;;;4.30;2.97;;;19.80;33.60;;;;;;5006789;28;20030;-56
2024/01/07 02:30:57;;;;;;;4.30;2.83;;;19.80;33.60;;;;;;5004801;28;20344;-54
2024/01/07 02:33:22;;;;;;;4.65;2.97;;;19.80;33.60;;;;;;5002733;28;20109;-55
2024/01/07 02:35:48;;;;;;;4.50;2.92;;;19.80;33.60;;;;;;5008593;28;20053;-53
2024/01/07 02:38:14;;;;;;;4.32;2.70;;;19.80;33.60;;;;;;5000207;28;20105;-54
2024/01/07 02:40:40;;;;;;;4.28;3.13;;;19.80;33.60;;;;;;5003077;28;20030;-54
2024/01/07 02:43:06;;;;;;;3.58;2.67;;;19.80;33.60;;;;;;5003757;28;20034;-52
2024/01/07 02:45:32;;;;;;;4.47;2.85;;;19.80;34.20;;;;;;5006953;28;20057;-54
2024/01/07 02:47:57;;;;;;;3.25;2.70;;;19.80;33.60;;;;;;5001656;28;20053;-54
2024/01/07 02:50:23;;;;;;;4.10;2.70;;;19.70;33.50;;;;;;5003100;28;20018;-52
2024/01/07 02:52:49;;;;;;;3.78;2.30;;;19.80;33.60;;;;;;5005202;28;20060;-55
2024/01/07 02:55:15;;;;;;;3.83;2.80;;;19.80;33.60;;;;;;5007086;28;20042;-55
2024/01/07 02:57:40;;;;;;;3.92;2.75;;;19.70;33.50;;;;;;4997316;28;20469;-55
2024/01/07 03:00:07;;;;;;;3.17;2.25;;;19.70;33.50;;;;;;5002177;28;20353;-56
2024/01/07 03:02:33;;;;;;;3.92;2.67;;;19.70;33.50;;;;;;5006545;28;20022;-55
2024/01/07 03:04:59;;;;;;;3.22;2.40;;;19.70;33.50;;;;;;4999108;28;20032;-53
2024/01/07 03:07:25;;;;;;;3.97;2.58;;;19.70;33.50;;;;;;5001326;28;20044;-53
2024/01/07 03:09:51;;;;;;;2.85;2.30;;;19.70;33.40;;;;;;5005315;28;20087;-52
2024/01/07 03:12:17;;;;;;;3.22;2.30;;;19.70;33.50;;;;;;5000807;28;20038;-53
2024/01/07 03:14:43;;;;;;;3.65;2.30;;;19.70;33.40;;;;;;5002694;28;20352;-54
2024/01/07 03:17:10;;;;;;;4.05;2.42;;;19.70;33.50;;;;;;5001201;28;20042;-56
2024/01/07 03:19:38;;;;;;;3.38;1.95;;;19.70;33.40;;;;;;5001057;28;20022;-53
2024/01/07 03:22:05;;;;;;;3.58;2.25;;;19.70;33.40;;;;;;5004880;28;20425;-52
2024/01/07 03:24:31;;;;;;;3.05;2.30;;;19.70;33.40;;;;;;4997555;28;20018;-52
2024/01/07 03:26:57;;;;;;;3.20;2.30;;;19.70;33.40;;;;;;5010411;28;20052;-54
2024/01/07 03:29:22;;;;;;;2.47;1.75;;;19.70;33.40;;;;;;5005632;28;20034;-53
2024/01/07 03:31:48;;;;;;;2.70;2.15;;;19.70;33.40;;;;;;5007776;28;20040;-53
2024/01/07 03:34:14;;;;;;;2.88;1.77;;;19.70;33.40;;;;;;5003682;28;20026;-54
2024/01/07 03:36:40;;;;;;;2.45;1.90;;;19.70;33.40;;;;;;5000286;28;20053;-51
2024/01/07 03:39:06;;;;;;;3.22;2.28;;;19.60;33.30;;;;;;4994861;28;20089;-56
2024/01/07 03:41:32;;;;;;;1.73;1.45;;;19.70;33.40;;;;;;5003444;28;20022;-54
2024/01/07 03:43:58;;;;;;;2.97;2.03;;;19.60;33.30;;;;;;5000646;28;20022;-55
2024/01/07 03:46:24;;;;;;;2.40;1.60;;;19.60;33.30;;;;;;4999825;28;20054;-56
2024/01/07 03:48:49;;;;;;;1.80;1.17;;;19.60;33.30;;;;;;5005648;28;20441;-55
2024/01/07 03:51:15;;;;;;;2.20;1.48;;;19.60;33.30;;;;;;5001849;28;20109;-53
2024/01/07 03:53:41;;;;;;;1.95;1.70;;;19.60;33.30;;;;;;4998288;28;20458;-54
2024/01/07 03:56:07;;;;;;;3.13;1.60;;;19.60;33.30;;;;;;5008561;28;20041;-56
2024/01/07 03:58:34;;;;;;;1.98;1.42;;;19.60;33.30;;;;;;5010157;28;20113;-53
2024/01/07 04:01:00;;;;;;;1.75;1.23;;;19.60;33.30;;;;;;5004034;28;20030;-55
2024/01/07 04:03:26;;;;;;;2.42;1.85;;;19.60;33.20;;;;;;5008347;28;20030;-53
2024/01/07 04:05:51;;;;;;;2.40;1.63;;;19.60;33.20;;;;;;5003341;28;20052;-54
2024/01/07 04:08:18;;;;;;;1.95;1.58;;;19.60;33.90;;;;;;5008009;28;20033;-54
2024/01/07 04:10:43;;;;;;;1.90;1.45;;;19.60;33.30;;;;;;5010241;28;20033;-53
2024/01/07 04:13:09;;;;;;;1.95;1.52;;;19.60;33.30;;;;;;5007911;28;20056;-54
2024/01/07 04:15:35;;;;;;;2.53;1.88;;;19.60;33.30;;;;;;5010135;28;20113;-52
2024/01/07 04:18:05;;;;;;;1.92;1.30;;;19.60;33.30;;;;;;5003490;28;20040;-54
2024/01/07 04:20:31;;;;;;;2.20;1.65;;;19.50;33.20;;;;;;4998194;28;20037;-54
2024/01/07 04:22:57;;;;;;;2.00;1.58;;;19.50;33.20;;;;;;5003974;28;20037;-53
2024/01/07 04:25:24;;;;;;;2.50;1.60;;;19.50;33.20;;;;;;5003517;28;20033;-55
2024/01/07 04:27:49;;;;;;;1.95;1.40;;;19.50;33.10;;;;;;5007222;28;20033;-56
2024/01/07 04:30:15;;;;;;;2.28;1.70;;;19.50;33.20;;;;;;5008661;28;20421;-51
2024/01/07 04:32:41;;;;;;;2.80;1.58;;;19.50;33.10;;;;;;5006975;28;20064;-52
2024/01/07 04:35:07;;;;;;;3.85;1.67;;;19.50;33.10;;;;;;5005420;28;20499;-50
2024/01/07 04:37:34;;;;;;;2.28;1.77;;;19.50;33.10;;;;;;5006725;28;20426;-54
2024/01/07 04:40:00;;;;;;;2.50;1.60;;;19.50;33.10;;;;;;5001356;28;20034;-50
2024/01/07 04:42:26;;;;;;;2.33;1.65;;;19.50;33.10;;;;;;5006767;28;20036;-54
2024/01/07 04:44:52;;;;;;;2.75;1.80;;;19.50;33.10;;;;;;5004949;28;20027;-49
2024/01/07 04:47:34;;;;;;;2.38;1.80;;;19.50;33.10;;;;;;5002911;28;20915;-55
2024/01/07 04:50:00;;;;;;;2.55;1.83;;;19.50;33.00;;;;;;5003517;28;20605;-54
2024/01/07 04:52:26;;;;;;;2.20;1.52;;;19.50;33.00;;;;;;5004789;28;20109;-55
2024/01/07 04:54:53;;;;;;;1.40;1.27;;;19.50;33.00;;;;;;5007346;28;20033;-53
2024/01/07 04:57:19;;;;;;;1.98;1.63;;;19.50;33.00;;;;;;5004442;28;20117;-54
2024/01/07 04:59:45;;;;;;;2.33;1.70;;;19.50;33.00;;;;;;4999314;28;20031;-56
2024/01/07 05:02:11;;;;;;;2.08;1.48;;;19.50;33.00;;;;;;5000337;28;20152;-53
2024/01/07 05:04:37;;;;;;;2.72;1.60;;;19.50;33.00;;;;;;5009371;28;20441;-55
2024/01/07 05:07:03;;;;;;;2.17;1.58;;;19.40;32.90;;;;;;5002209;28;20034;-55
2024/01/07 05:09:29;;;;;;;1.70;1.33;;;19.40;32.90;;;;;;5004099;28;20037;-52
2024/01/07 05:11:55;;;;;;;1.80;1.58;;;19.40;32.90;;;;;;4999840;28;20104;-55
2024/01/07 05:14:22;;;;;;;2.85;1.35;;;19.40;32.90;;;;;;5007680;28;20102;-52
2024/01/07 05:16:48;;;;;;;1.95;1.40;;;19.40;32.90;;;;;;5001887;28;20038;-54
2024/01/07 05:19:14;;;;;;;2.45;1.90;;;19.40;32.90;;;;;;5006429;28;20552;-51
2024/01/07 05:21:40;;;;;;;2.22;1.60;;;19.40;32.90;;;;;;5005322;28;20029;-53
2024/01/07 05:24:06;;;;;;;1.83;1.40;;;19.40;32.90;;;;;;5003442;28;20361;-53
2024/01/07 05:26:39;;;;;;;2.53;1.60;;;19.40;32.80;;;;;;5011351;28;20031;-54
2024/01/07 05:29:05;;;;;;;2.10;1.60;;;19.40;32.80;;;;;;5002703;28;20038;-52
2024/01/07 05:31:31;;;;;;;2.85;1.60;;;19.40;32.80;;;;;;5006112;28;20089;-55
2024/01/07 05:33:57;;;;;;;2.80;1.77;;;19.40;32.80;;;;;;5003295;28;20377;-54
2024/01/07 05:36:23;;;;;;;2.17;1.70;;;19.40;32.80;;;;;;5002845;28;20065;-54
2024/01/07 05:38:48;;;;;;;1.80;1.33;;;19.40;32.80;;;;;;5001317;28;20026;-54
2024/01/07 05:41:14;;;;;;;2.33;1.40;;;19.40;32.80;;;;;;5002573;28;20110;-55
2024/01/07 05:43:40;;;;;;;3.00;1.65;;;19.40;32.80;;;;;;5004127;28;20034;-53
2024/01/07 05:46:06;;;;;;;2.83;1.60;;;19.40;32.70;;;;;;5003044;28;20037;-56
2024/01/07 05:48:46;;;;;;;2.40;1.52;;;19.40;32.70;;;;;;5006252;28;20025;-56
2024/01/07 05:51:13;;;;;;;2.08;1.55;;;19.40;32.70;;;;;;5005098;28;20061;-54
2024/01/07 05:53:39;;;;;;;1.92;1.55;;;19.30;32.70;;;;;;5002027;28;20030;-50
2024/01/07 05:56:05;;;;;;;2.38;1.48;;;19.30;32.70;;;;;;4999753;28;20038;-54
2024/01/07 05:58:31;;;;;;;1.65;1.33;;;19.40;32.70;;;;;;5002933;28;20180;-53
2024/01/07 06:00:57;;;;;;;2.38;1.23;;;19.30;32.70;;;;;;5011449;28;20077;-51
2024/01/07 06:03:23;;;;;;;1.80;1.50;;;19.30;32.70;;;;;;5005068;28;20560;-53
2024/01/07 06:05:49;;;;;;;1.58;1.30;;;19.30;32.70;;;;;;5002129;28;20022;-53
2024/01/07 06:08:14;;;;;;;2.05;1.40;;;19.30;32.70;;;;;;5007327;28;20452;-55
2024/01/07 06:10:41;;;;;;;1.83;1.40;;;19.30;32.60;;;;;;5002880;28;20109;-54
2024/01/07 06:13:07;;;;;;;1.60;1.30;;;19.30;32.60;;;;;;5001211;28;20042;-54
2024/01/07 06:15:33;;;;;;;2.67;1.60;;;19.30;32.60;;;;;;5003385;28;20141;-57
2024/01/07 06:17:58;;;;;;;1.50;1.10;;;19.30;32.60;;;;;;5000657;28;20025;-53
2024/01/07 06:20:24;;;;;;;1.75;1.13;;;19.30;32.60;;;;;;4999872;28;20022;-55
2024/01/07 06:22:50;;;;;;;2.08;1.60;;;19.30;32.60;;;;;;5002273;28;20027;-55
2024/01/07 06:25:16;;;;;;;3.05;1.60;;;19.30;32.60;;;;;;4994590;28;20372;-56
2024/01/07 06:27:42;;;;;;;2.40;1.27;;;19.30;32.60;;;;;;4999067;28;20080;-54
2024/01/07 06:30:09;;;;;;;1.73;1.50;;;19.30;32.60;;;;;;5004293;28;20034;-52
2024/01/07 06:32:35;;;;;;;1.90;1.40;;;19.30;32.60;;;;;;5006181;28;20065;-55
2024/01/07 06:35:03;;;;;;;1.80;1.40;;;19.30;32.70;;;;;;5005106;28;20033;-55
2024/01/07 06:37:29;;;;;;;1.73;1.38;;;19.30;32.70;;;;;;5006392;28;20054;-53
2024/01/07 06:39:59;;;;;;;2.40;1.30;;;19.30;32.70;;;;;;5006228;28;20084;-55
2024/01/07 06:42:25;;;;;;;1.50;1.05;;;19.30;32.70;;;;;;5002041;28;20030;-52
2024/01/07 06:44:50;;;;;;;2.03;1.50;;;19.20;32.70;;;;;;5005851;28;20372;-56
2024/01/07 06:47:16;;;;;;;3.03;1.20;;;19.20;32.70;;;;;;5002727;28;20037;-52
2024/01/07 06:49:42;;;;;;;1.77;1.40;;;19.20;32.70;;;;;;5002474;28;20018;-55
2024/01/07 06:52:08;;;;;;;1.50;1.30;;;19.30;32.70;;;;;;5003685;28;20026;-54
2024/01/07 06:54:33;;;;;;;1.75;1.20;;;19.20;32.70;;;;;;4998142;28;20465;-52
2024/01/07 06:56:59;;;;;;;1.90;1.50;;;19.20;32.70;;;;;;4999866;28;20045;-54
2024/01/07 06:59:25;;;;;;;1.60;1.30;;;19.20;32.70;;;;;;5002570;28;20104;-52
2024/01/07 07:01:51;;;;;;;1.88;1.50;;;19.20;32.70;;;;;;5002031;28;20019;-54
2024/01/07 07:04:17;;;;;;;2.45;1.60;;;19.20;32.70;;;;;;4999618;28;20054;-53
2024/01/07 07:06:43;;;;;;;2.20;1.67;;;19.20;32.70;;;;;;5001173;28;20033;-56
2024/01/07 07:09:11;;;;;;;2.08;1.38;;;19.20;32.70;;;;;;5001674;28;20030;-52
2024/01/07 07:11:37;;;;;;;2.10;1.40;;;19.20;32.70;;;;;;5002012;28;20056;-55
2024/01/07 07:14:03;;;;;;;1.77;1.27;;;19.20;32.60;;;;;;4998203;28;20022;-53
2024/01/07 07:16:28;;;;;;;2.15;1.50;;;19.20;32.60;;;;;;4998646;28;20046;-55
2024/01/07 07:18:54;;;;;;;2.00;1.45;;;19.20;32.70;;;;;;4999587;28;20450;-55
2024/01/07 07:21:20;;;;;;;1.67;1.05;;;19.20;32.70;;;;;;5004656;28;20030;-54
2024/01/07 07:23:46;;;;;;;1.83;1.60;;;19.20;32.70;;;;;;5005277;28;20449;-55
2024/01/07 07:26:11;;;;;;;1.98;1.48;;;19.20;32.70;;;;;;5003774;28;20030;-52
2024/01/07 07:28:37;;;;;;;1.42;1.17;;;19.20;32.60;;;;;;5002681;28;20029;-55
2024/01/07 07:31:03;;;;;;;2.50;1.45;;;19.10;32.60;;;;;;5005163;28;20438;-55
2024/01/07 07:33:29;;;;;;;2.28;1.67;;;19.20;32.70;;;;;;5008897;28;20024;-55
2024/01/07 07:35:54;;;;;;;1.83;1.13;;;19.20;32.60;;;;;;5007860;28;20045;-54
2024/01/07 07:38:20;;;;;;;2.55;1.60;;;19.10;32.50;;;;;;5005389;28;20105;-56
2024/01/07 07:40:52;;;;;;;2.30;1.40;;;19.20;32.60;;;;;;5002224;28;20022;-55
2024/01/07 07:43:19;;;;;;;1.20;1.02;;;19.20;32.60;;;;;;5004006;28;20034;-53
2024/01/07 07:45:45;;;;;;;2.00;1.45;;;19.20;33.20;;;;;;5005995;28;20030;-56
2024/01/07 07:48:11;;;;;;;2.50;1.55;;;19.20;32.50;;;;;;5004522;28;20029;-55
2024/01/07 07:50:36;;;;;;;1.50;1.20;;;19.20;32.60;;;;;;5005921;28;20371;-51
2024/01/07 07:53:02;;;;;;;1.83;1.13;;;19.20;32.50;;;;;;5007251;28;20033;-51
2024/01/07 07:55:28;;;;;;;2.10;1.40;;;19.10;32.40;;;;;;5002481;28;20037;-55
2024/01/07 07:57:54;;;;;;;1.15;0.98;;;19.10;32.40;;;;;;5002877;28;20434;-53
2024/01/07 08:00:20;;;;;;;2.25;1.55;;;19.20;32.40;;;;;;5004974;28;20093;-51
2024/01/07 08:02:46;;;;;;;1.80;1.33;;;19.10;33.00;;;;;;5003802;28;20081;-51
2024/01/07 08:05:12;;;;;;;2.00;1.40;;;19.10;32.30;;;;;;5004523;28;20027;-54
2024/01/07 08:07:37;;;;;;;1.50;1.10;;;19.10;32.30;;;;;;5002626;28;20038;-56
2024/01/07 08:10:04;;;;;;;1.45;1.17;;;19.10;32.30;;;;;;5006109;28;20434;-51
2024/01/07 08:12:30;;;;;;;1.83;1.30;;;19.10;32.20;;;;;;5006606;28;20046;-62
2024/01/07 08:14:55;;;;;;;1.40;1.00;;;19.10;32.20;;;;;;5007744;28;20032;-54
2024/01/07 08:17:21;;;;;;;1.83;1.20;;;19.10;32.20;;;;;;5004870;28;20022;-56
2024/01/07 08:19:47;;;;;;;2.47;1.50;;;19.10;32.20;;;;;;5005863;28;20134;-55
2024/01/07 08:22:14;;;;;;;2.67;1.10;;;19.10;32.30;;;;;;5004951;28;20031;-56
2024/01/07 08:24:40;;;;;;;1.58;1.17;;;19.10;32.40;;;;;;5004127;28;20088;-56
2024/01/07 08:27:05;;;;;;;6.68;1.30;;;19.10;32.40;;;;;;4993222;28;20030;-56
2024/01/07 08:29:31;;;;;;;1.52;1.20;;;19.00;32.40;;;;;;5008348;28;20036;-55
2024/01/07 08:31:57;;;;;;;2.22;1.17;;;19.00;32.50;;;;;;5005647;28;20026;-57
2024/01/07 08:34:23;;;;;;;1.65;1.25;;;19.00;32.50;;;;;;5004935;28;20068;-53
2024/01/07 08:36:49;;;;;;;1.48;1.02;;;19.00;32.50;;;;;;5006673;28;20103;-56
2024/01/07 08:39:15;;;;;;;1.90;1.30;;;19.00;32.50;;;;;;5006496;28;20437;-56
2024/01/07 08:41:41;;;;;;;1.85;1.20;;;19.00;32.50;;;;;;4998693;28;20022;-54
2024/01/07 08:44:09;;;;;;;2.08;1.23;;;19.00;32.40;;;;;;5007766;28;20064;-56
2024/01/07 08:46:35;;;;;;;1.80;1.20;;;19.00;32.40;;;;;;5015248;28;20018;-55
2024/01/07 08:49:01;;;;;;;1.45;1.20;;;19.00;32.40;;;;;;5010880;28;20029;-54
2024/01/07 08:51:29;;;;;;;1.90;1.30;;;19.00;32.40;;;;;;5011427;28;20025;-57
2024/01/07 08:53:57;;;;;;;2.33;1.45;;;19.00;32.40;;;;;;5007952;28;20056;-57
2024/01/07 08:56:23;;;;;;;3.22;1.88;;;19.00;32.40;;;;;;5000627;28;20401;-58
2024/01/07 08:58:49;;;;;;;2.15;1.40;;;19.00;32.40;;;;;;4997409;28;20031;-57
2024/01/07 09:01:14;;;;;;;2.40;1.67;;;19.00;32.40;;;;;;5011660;28;20038;-58
2024/01/07 09:03:41;;;;;;;2.92;1.83;;;19.00;32.40;;;;;;5007297;28;20026;-56
2024/01/07 09:06:10;;;;;;;2.80;1.70;;;19.00;32.40;;;;;;5002685;28;20045;-56
2024/01/07 09:08:36;;;;;;;3.85;1.58;;;19.10;32.40;;;;;;5002552;28;20362;-59
2024/01/07 09:11:06;;;;;;;2.38;1.38;;;19.10;32.30;;;;;;5009184;28;20088;-53
2024/01/07 09:13:32;;;;;;;2.80;1.70;;;19.10;32.10;;;;;;5013247;28;20046;-56
2024/01/07 09:15:58;;;;;;;2.25;1.20;;;19.30;32.20;;;;;;5007817;28;20048;-59
2024/01/07 09:18:23;;;;;;;3.63;1.75;;;19.40;32.20;;;;;;5002709;28;20461;-59
2024/01/07 09:20:49;;;;;;;2.67;1.52;;;19.50;32.20;;;;;;5004195;28;20058;-55
2024/01/07 09:23:15;;;;;;;3.13;1.50;;;19.60;32.10;;;;;;5014047;28;20026;-55
2024/01/07 09:25:41;;;;;;;3.60;1.75;;;19.70;32.20;;;;;;5006578;28;20383;-58
2024/01/07 09:28:07;;;;;;;3.45;1.65;;;19.70;32.20;;;;;;5004708;28;20026;-59
2024/01/07 09:30:33;;;;;;;2.53;1.45;;;19.70;32.80;;;;;;5007212;28;20041;-56
2024/01/07 09:32:59;;;;;;;3.10;1.45;;;19.70;32.20;;;;;;4997681;28;20030;-59
2024/01/07 09:35:25;;;;;;;2.17;1.65;;;19.70;32.20;;;;;;5010267;28;20038;-59
2024/01/07 09:37:51;;;;;;;3.13;1.88;;;19.80;32.10;;;;;;5001234;28;20034;-53
2024/01/07 09:40:19;;;;;;;2.75;1.80;;;19.70;31.80;;;;;;4996691;28;20521;-52
2024/01/07 09:42:45;;;;;;;2.17;1.30;;;19.60;31.60;;;;;;4994470;28;20338;-55
2024/01/07 09:45:13;;;;;;;2.20;1.25;;;19.50;31.50;;;;;;5008347;28;20033;-56
2024/01/07 09:47:41;;;;;;;2.10;1.48;;;19.40;31.40;;;;;;5011051;28;20026;-58
2024/01/07 09:50:09;;;;;;;1.92;1.38;;;19.40;31.30;;;;;;5004329;28;20112;-57
2024/01/07 09:52:35;;;;;;;1.90;1.25;;;19.40;31.30;;;;;;5009681;28;20022;-58
2024/01/07 09:55:03;;;;;;;2.38;1.65;;;19.50;31.30;;;;;;5012147;28;20453;-51
2024/01/07 09:57:30;;;;;;;2.08;1.30;;;19.50;31.20;;;;;;4998920;28;20037;-56
2024/01/07 09:59:56;;;;;;;2.30;1.27;;;19.50;31.20;;;;;;4997771;28;20045;-57
2024/01/07 10:02:23;;;;;;;2.30;1.42;;;19.60;31.20;;;;;;5003798;28;20109;-54
2024/01/07 10:04:49;;;;;;;1.92;1.30;;;19.60;31.20;;;;;;5013079;28;20033;-56
2024/01/07 10:07:16;;;;;;;1.55;1.13;;;19.70;31.20;;;;;;5004457;28;20054;-57
2024/01/07 10:09:43;;;;;;;1.70;1.10;;;19.70;31.80;;;;;;5005451;28;20023;-53
2024/01/07 10:12:09;;;;;;;1.92;1.27;;;19.80;31.20;;;;;;5000239;28;20365;-57
2024/01/07 10:14:35;;;;;;;1.70;1.10;;;19.80;31.20;;;;;;4997455;28;20030;-59
2024/01/07 10:17:01;;;;;;;2.90;1.67;;;19.90;31.30;;;;;;5002706;28;20060;-60
2024/01/07 10:19:27;;;;;;;3.90;2.60;;;19.90;31.40;;;;;;5010393;28;20033;-59
2024/01/07 10:22:04;;;;;;;5.57;2.90;;;20.00;31.70;;;;;;5003778;28;20029;-59
2024/01/07 10:24:41;;;;;;;7.13;3.42;;;20.00;32.30;;;;;;4993754;28;20117;-60
2024/01/07 10:27:08;;;;;;;7.65;3.85;;;20.00;33.00;;;;;;5005189;28;20456;-62
2024/01/07 10:29:34;;;;;;;8.05;3.80;;;20.10;33.50;;;;;;5012181;28;20017;-60
2024/01/07 10:32:05;;;;;;;6.38;3.70;;;20.10;34.00;;;;;;5011501;28;20030;-60
2024/01/07 10:34:32;;;;;;;8.80;4.18;;;20.10;34.40;;;;;;4996646;28;20128;-57
2024/01/07 10:37:03;;;;;;;8.65;3.58;;;20.20;35.10;;;;;;5002782;28;20045;-56
2024/01/07 10:39:30;;;;;;;5.65;3.10;;;20.20;35.10;;;;;;4998273;28;20061;-58
2024/01/07 10:41:59;;;;;;;6.03;3.28;;;20.20;35.10;;;;;;4991476;28;20030;-53
2024/01/07 10:44:30;;;;;;;4.43;2.40;;;20.20;35.00;;;;;;5008865;28;20381;-66
2024/01/07 10:46:56;;;;;;;5.05;2.30;;;20.30;35.00;;;;;;5011257;28;20463;-62
2024/01/07 10:49:24;;;;;;;3.97;1.58;;;20.20;34.10;;;;;;5003170;28;20425;-58
2024/01/07 10:52:07;;;;;;;4.97;2.20;;;20.10;33.50;;;;;;5013534;28;20032;-59
2024/01/07 10:54:36;;;;;;;6.07;2.63;;;20.00;33.30;;;;;;5005543;28;20026;-58
2024/01/07 10:57:18;;;;;;;7.25;2.72;;;20.00;33.40;;;;;;5013010;28;20345;-62
2024/01/07 10:59:45;;;;;;;8.18;2.90;;;20.00;33.30;;;;;;5003424;28;20441;-60
2024/01/07 11:02:13;;;;;;;6.28;2.63;;;20.00;33.30;;;;;;5009193;28;20021;-59
2024/01/07 11:05:08;;;;;;;6.43;3.15;;;20.10;33.30;;;;;;4999957;28;20083;-59
2024/01/07 11:07:44;;;;;;;6.63;2.90;;;20.10;33.40;;;;;;5004888;28;20030;-58
2024/01/07 11:10:17;;;;;;;7.22;3.15;;;20.20;33.80;;;;;;4998479;28;20445;-58
2024/01/07 11:12:43;;;;;;;9.82;4.07;;;20.20;34.40;;;;;;4996954;28;20129;-61
2024/01/07 11:15:10;;;;;;;7.22;3.67;;;20.20;34.80;;;;;;5005768;28;20057;-61
2024/01/07 11:17:35;;;;;;;9.18;3.53;;;20.30;35.10;;;;;;4998844;28;20034;-62
2024/01/07 11:20:19;;;;;;;7.10;3.67;;;20.30;35.40;;;;;;5001363;28;20030;-60
2024/01/07 11:22:46;;;;;;;7.30;3.47;;;20.40;35.70;;;;;;5002569;28;20045;-61
2024/01/07 11:25:31;;;;;;;9.18;3.80;;;20.40;36.00;;;;;;4997619;28;20041;-61
2024/01/07 11:28:01;;;;;;;6.93;4.07;;;20.40;36.20;;;;;;5002832;28;20027;-61
2024/01/07 11:30:27;;;;;;;6.15;3.58;;;20.50;36.40;;;;;;5000805;28;20076;-61
2024/01/07 11:33:00;;;;;;;7.32;3.13;;;20.50;36.30;;;;;;5005354;28;20433;-62
2024/01/07 11:36:02;;;;;;;5.47;3.17;;;20.50;36.20;;;;;;5004362;28;20453;-61
2024/01/07 11:38:28;;;;;;;7.93;2.70;;;20.50;36.10;;;;;;5004090;28;20022;-54
2024/01/07 11:40:55;;;;;;;3.15;2.17;;;20.50;35.90;;;;;;5004750;28;20070;-60
2024/01/07 11:43:21;;;;;;;5.10;2.67;;;20.50;35.70;;;;;;4992524;28;20027;-59
2024/01/07 11:45:49;;;;;;;6.50;2.30;;;20.50;35.50;;;;;;5001145;28;20096;-59
2024/01/07 11:48:15;;;;;;;3.53;1.85;;;20.50;35.20;;;;;;5002258;28;20065;-58
2024/01/07 11:50:42;;;;;;;7.00;2.20;;;20.50;35.00;;;;;;4998870;28;20058;-58
2024/01/07 11:53:08;;;;;;;3.25;2.15;;;20.60;34.90;;;;;;4999514;28;20482;-57
2024/01/07 11:55:36;;;;;;;2.30;1.70;;;20.60;34.70;;;;;;5002893;28;20510;-57
2024/01/07 11:58:03;;;;;;;4.75;1.80;;;20.50;34.40;;;;;;5001619;28;20034;-58
2024/01/07 12:00:32;;;;;;;2.20;1.42;;;20.50;34.20;;;;;;4998410;28;20054;-56
2024/01/07 12:02:59;;;;;;;3.25;1.33;;;20.50;33.90;;;;;;5005935;28;20104;-56
2024/01/07 12:05:25;;;;;;;3.33;1.48;;;20.50;33.80;;;;;;5005843;28;20033;-55
2024/01/07 12:07:51;;;;;;;2.30;1.40;;;20.50;33.60;;;;;;4999791;28;20033;-55
2024/01/07 12:10:17;;;;;;;3.58;1.45;;;20.50;33.40;;;;;;4997792;28;20034;-56
2024/01/07 12:12:44;;;;;;;2.40;1.60;;;20.50;33.30;;;;;;5006646;28;20116;-56
2024/01/07 12:15:13;;;;;;;2.53;1.27;;;20.50;33.10;;;;;;5001039;28;20109;-53
2024/01/07 12:17:39;;;;;;;3.00;1.05;;;20.40;32.90;;;;;;5006746;28;20034;-55
2024/01/07 12:20:07;;;;;;;1.98;1.02;;;20.40;32.70;;;;;;4999390;28;20050;-56
2024/01/07 12:22:33;;;;;;;2.10;0.93;;;20.40;32.60;;;;;;5001831;28;20373;-55
2024/01/07 12:25:08;;;;;;;1.42;0.80;;;20.40;32.50;;;;;;5011166;28;20033;-57
2024/01/07 12:27:35;;;;;;;2.28;1.10;;;20.40;32.30;;;;;;5001722;28;20025;-55
2024/01/07 12:30:01;;;;;;;1.10;0.70;;;20.40;32.20;;;;;;5004234;28;20030;-57
2024/01/07 12:32:27;;;;;;;2.53;0.98;;;20.40;32.10;;;;;;5011270;28;20413;-55
2024/01/07 12:34:53;;;;;;;1.23;0.88;;;20.30;31.90;;;;;;5004982;28;20446;-58
2024/01/07 12:37:19;;;;;;;1.90;0.82;;;20.30;31.80;;;;;;5002860;28;20041;-56
2024/01/07 12:39:45;;;;;;;1.45;0.90;;;20.30;31.80;;;;;;5005375;28;20490;-57
2024/01/07 12:42:10;;;;;;;1.88;0.90;;;20.30;31.70;;;;;;5008837;28;20030;-55
2024/01/07 12:44:36;;;;;;;0.88;0.52;;;20.30;31.60;;;;;;5007029;28;20454;-58
2024/01/07 12:47:03;;;;;;;1.00;0.55;;;20.30;31.50;;;;;;5004172;28;20033;-57